createdAt,value
2023-02-19T00:01:11.802Z,9.02
2023-02-19T00:04:20.057Z,11.77
2023-02-19T00:07:23.179Z,11.83
2023-02-19T00:10:26.098Z,10.30
2023-02-19T00:13:29.578Z,10.10
2023-02-19T00:16:33.635Z,9.18
2023-02-19T00:19:36.483Z,4.97
2023-02-19T00:22:39.666Z,6.47
2023-02-19T00:25:42.460Z,8.37
2023-02-19T00:28:47.341Z,4.07
2023-02-19T00:31:50.996Z,4.63
2023-02-19T00:34:54.256Z,3.97
2023-02-19T00:37:57.107Z,3.25
2023-02-19T00:41:00.660Z,5.10
2023-02-19T00:44:08.468Z,4.57
2023-02-19T00:47:11.447Z,3.30
2023-02-19T00:50:16.250Z,3.80
2023-02-19T00:53:19.368Z,2.75
2023-02-19T00:56:22.571Z,3.00
2023-02-19T00:59:25.643Z,2.55
2023-02-19T01:02:28.774Z,3.55
2023-02-19T01:05:31.790Z,5.72
2023-02-19T01:08:39.368Z,2.67
2023-02-19T01:11:42.377Z,2.80
2023-02-19T01:14:45.487Z,2.65
2023-02-19T01:17:48.420Z,2.97
2023-02-19T01:20:52.263Z,2.80
2023-02-19T01:23:55.999Z,2.20
2023-02-19T01:27:01.332Z,2.13
2023-02-19T01:30:04.747Z,2.33
2023-02-19T01:33:12.705Z,2.55
2023-02-19T01:36:16.220Z,1.80
2023-02-19T01:39:19.410Z,2.70
2023-02-19T01:42:22.631Z,2.17
2023-02-19T01:45:31.062Z,2.20
2023-02-19T01:48:38.424Z,2.40
2023-02-19T01:51:49.340Z,2.00
2023-02-19T01:54:55.332Z,2.70
2023-02-19T01:57:59.207Z,2.57
2023-02-19T02:01:04.662Z,2.47
2023-02-19T02:04:11.150Z,2.13
2023-02-19T02:07:33.166Z,2.00
2023-02-19T02:10:36.961Z,2.17
2023-02-19T02:13:40.604Z,1.90
2023-02-19T02:17:13.046Z,1.90
2023-02-19T02:20:16.243Z,2.65
2023-02-19T02:23:28.063Z,2.40
2023-02-19T02:26:42.154Z,1.60
2023-02-19T02:29:51.608Z,2.27
2023-02-19T02:33:00.431Z,1.63
2023-02-19T02:36:13.037Z,1.73
2023-02-19T02:39:24.479Z,1.80
2023-02-19T02:42:27.568Z,1.85
2023-02-19T02:45:39.953Z,1.67
2023-02-19T02:49:05.401Z,1.67
2023-02-19T02:52:31.087Z,1.35
2023-02-19T02:55:38.114Z,0.90
2023-02-19T02:58:43.323Z,1.55
2023-02-19T03:02:14.271Z,1.50
2023-02-19T03:05:41.520Z,1.20
2023-02-19T03:09:00.341Z,1.35
2023-02-19T03:12:24.313Z,1.38
2023-02-19T03:15:52.602Z,1.50
2023-02-19T03:19:18.160Z,1.20
2023-02-19T03:22:30.210Z,1.52
2023-02-19T03:25:56.800Z,1.20
2023-02-19T03:29:26.603Z,1.42
2023-02-19T03:33:03.034Z,1.60
2023-02-19T03:36:10.481Z,1.20
2023-02-19T03:39:17.753Z,1.60
2023-02-19T03:42:26.082Z,1.60
2023-02-19T03:45:38.801Z,1.48
2023-02-19T03:48:53.400Z,1.90
2023-02-19T03:52:11.446Z,6.07
2023-02-19T03:55:27.256Z,9.93
2023-02-19T03:58:40.380Z,10.45
2023-02-19T04:02:00.905Z,16.08
2023-02-19T04:05:11.637Z,13.67
2023-02-19T04:08:19.363Z,16.87
2023-02-19T04:11:30.630Z,17.48
2023-02-19T04:14:47.498Z,19.20
2023-02-19T04:18:22.795Z,17.48
2023-02-19T04:21:29.510Z,19.08
2023-02-19T04:24:38.917Z,19.03
2023-02-19T04:27:45.054Z,16.65
2023-02-19T04:30:48.282Z,20.25
2023-02-19T04:33:51.257Z,18.17
2023-02-19T04:36:54.262Z,19.30
2023-02-19T04:39:57.089Z,19.37
2023-02-19T04:43:00.433Z,21.25
2023-02-19T04:46:03.718Z,20.00
2023-02-19T04:49:06.748Z,18.30
2023-02-19T04:52:10.190Z,18.67
2023-02-19T04:55:13.099Z,19.97
2023-02-19T04:58:15.951Z,20.58
2023-02-19T05:01:19.062Z,20.63
2023-02-19T05:04:22.089Z,22.80
2023-02-19T05:07:25.055Z,21.73
2023-02-19T05:10:27.991Z,20.60
2023-02-19T05:13:31.782Z,19.42
2023-02-19T05:16:35.053Z,19.63
2023-02-19T05:19:38.011Z,18.52
2023-02-19T05:22:41.023Z,19.60
2023-02-19T05:25:44.061Z,25.43
2023-02-19T05:28:49.649Z,23.05
2023-02-19T05:31:52.698Z,20.30
2023-02-19T05:34:55.702Z,19.92
2023-02-19T05:38:00.738Z,22.27
2023-02-19T05:41:08.883Z,23.97
2023-02-19T05:44:11.912Z,20.38
2023-02-19T05:47:14.841Z,23.58
2023-02-19T05:50:18.773Z,21.98
2023-02-19T05:53:21.631Z,23.07
2023-02-19T05:56:33.780Z,23.13
2023-02-19T05:59:36.686Z,28.50
2023-02-19T06:02:39.721Z,27.42
2023-02-19T06:05:42.713Z,24.60
2023-02-19T06:08:46.083Z,24.77
2023-02-19T06:11:49.177Z,22.53
2023-02-19T06:14:52.239Z,23.73
2023-02-19T06:17:55.261Z,23.75
2023-02-19T06:21:06.175Z,24.08
2023-02-19T06:24:10.061Z,22.97
2023-02-19T06:27:13.045Z,24.63
2023-02-19T06:30:16.037Z,22.83
2023-02-19T06:33:19.609Z,27.30
2023-02-19T06:36:23.564Z,24.08
2023-02-19T06:39:26.814Z,29.63
2023-02-19T06:42:33.156Z,23.27
2023-02-19T06:45:36.081Z,25.27
2023-02-19T06:48:40.497Z,22.83
2023-02-19T06:51:43.548Z,25.05
2023-02-19T06:54:46.428Z,21.17
2023-02-19T06:57:49.381Z,21.67
2023-02-19T07:00:54.071Z,25.10
2023-02-19T07:03:57.381Z,27.38
2023-02-19T07:07:00.381Z,25.00
2023-02-19T07:10:04.119Z,23.53
2023-02-19T07:13:08.362Z,26.20
2023-02-19T07:16:12.513Z,19.85
2023-02-19T07:19:16.041Z,22.92
2023-02-19T07:22:19.079Z,22.17
2023-02-19T07:25:24.500Z,25.47
2023-02-19T07:28:27.701Z,23.20
2023-02-19T07:31:31.091Z,23.98
2023-02-19T07:34:34.234Z,24.83
2023-02-19T07:37:37.177Z,24.25
2023-02-19T07:40:40.130Z,24.47
2023-02-19T07:43:43.249Z,24.87
2023-02-19T07:46:46.115Z,23.20
2023-02-19T07:49:49.095Z,26.08
2023-02-19T07:52:52.492Z,25.45
2023-02-19T07:56:03.982Z,24.60
2023-02-19T07:59:06.921Z,30.23
2023-02-19T08:02:37.069Z,30.92
2023-02-19T08:05:42.951Z,32.72
2023-02-19T08:08:45.937Z,26.85
2023-02-19T08:12:10.815Z,27.27
2023-02-19T08:15:13.672Z,27.27
2023-02-19T08:18:18.545Z,27.23
2023-02-19T08:21:21.541Z,28.35
2023-02-19T08:24:25.061Z,24.77
2023-02-19T08:27:28.053Z,26.63
2023-02-19T08:30:33.044Z,30.53
2023-02-19T08:33:36.730Z,31.63
2023-02-19T08:36:39.628Z,28.00
2023-02-19T08:39:42.624Z,28.30
2023-02-19T08:42:46.189Z,25.63
2023-02-19T08:45:53.617Z,27.23
2023-02-19T08:48:56.615Z,28.38
2023-02-19T08:51:59.505Z,23.65
2023-02-19T08:55:04.124Z,25.90
2023-02-19T08:58:07.151Z,23.33
2023-02-19T09:01:16.675Z,28.50
2023-02-19T09:04:19.556Z,29.67
2023-02-19T09:07:23.183Z,23.92
2023-02-19T09:10:27.934Z,26.67
2023-02-19T09:13:31.496Z,27.97
2023-02-19T09:16:35.715Z,26.20
2023-02-19T09:19:41.314Z,28.30
2023-02-19T09:22:44.177Z,28.02
2023-02-19T09:25:47.971Z,25.77
2023-02-19T09:28:50.954Z,26.57
2023-02-19T09:32:01.343Z,27.13
2023-02-19T09:35:04.448Z,30.90
2023-02-19T09:38:07.445Z,29.13
2023-02-19T09:41:25.075Z,32.03
2023-02-19T09:44:32.645Z,29.57
2023-02-19T09:47:35.870Z,27.73
2023-02-19T09:50:42.810Z,26.98
2023-02-19T09:53:50.892Z,25.63
2023-02-19T09:57:00.078Z,31.48
2023-02-19T10:00:23.896Z,26.73
2023-02-19T10:03:41.365Z,27.80
2023-02-19T10:06:44.664Z,29.50
2023-02-19T10:09:53.619Z,30.23
2023-02-19T10:13:10.091Z,27.45
2023-02-19T10:16:17.689Z,26.52
2023-02-19T10:19:20.629Z,26.63
2023-02-19T10:22:24.500Z,26.55
2023-02-19T10:25:27.824Z,25.70
2023-02-19T10:28:34.248Z,30.77
2023-02-19T10:31:38.093Z,28.35
2023-02-19T10:34:41.127Z,26.33
2023-02-19T10:37:47.333Z,27.55
2023-02-19T10:40:59.155Z,25.65
2023-02-19T10:44:14.356Z,21.25
2023-02-19T10:47:21.435Z,18.83
2023-02-19T10:50:31.063Z,28.63
2023-02-19T10:53:47.722Z,26.20
2023-02-19T10:56:50.571Z,24.85
2023-02-19T11:00:01.239Z,24.65
2023-02-19T11:03:21.200Z,21.77
2023-02-19T11:06:27.117Z,24.37
2023-02-19T11:10:00.386Z,22.92
2023-02-19T11:13:06.206Z,23.83
2023-02-19T11:16:09.376Z,29.65
2023-02-19T11:19:36.442Z,29.48
2023-02-19T11:22:47.040Z,41.30
2023-02-19T11:25:53.092Z,24.80
2023-02-19T11:29:01.520Z,22.55
2023-02-19T11:32:24.964Z,26.10
2023-02-19T11:35:29.085Z,25.05
2023-02-19T11:38:32.354Z,23.90
2023-02-19T11:41:41.592Z,24.70
2023-02-19T11:45:20.207Z,21.33
2023-02-19T11:48:32.569Z,25.15
2023-02-19T11:51:41.440Z,23.15
2023-02-19T11:55:07.633Z,24.87
2023-02-19T11:58:41.491Z,24.92
2023-02-19T12:02:12.271Z,24.60
2023-02-19T12:05:34.009Z,24.00
2023-02-19T12:09:16.526Z,22.40
2023-02-19T12:12:34.774Z,20.97
2023-02-19T12:16:05.319Z,19.92
2023-02-19T12:19:50.979Z,19.75
2023-02-19T12:23:22.013Z,10.00
2023-02-19T12:26:32.898Z,8.15
2023-02-19T12:29:59.388Z,9.63
2023-02-19T12:33:11.869Z,3.70
2023-02-19T12:36:27.699Z,2.80
2023-02-19T12:39:51.987Z,3.05
2023-02-19T12:43:14.143Z,2.65
2023-02-19T12:46:24.811Z,3.23
2023-02-19T12:49:37.205Z,3.30
2023-02-19T12:52:46.731Z,3.45
2023-02-19T12:55:50.945Z,2.45
2023-02-19T12:59:36.796Z,2.35
2023-02-19T13:02:54.301Z,2.20
2023-02-19T13:06:25.185Z,3.30
2023-02-19T13:09:43.027Z,3.97
2023-02-19T13:12:49.916Z,2.72
2023-02-19T13:15:58.971Z,2.65
2023-02-19T13:19:04.801Z,3.33
2023-02-19T13:22:41.197Z,3.60
2023-02-19T13:25:59.493Z,3.45
2023-02-19T13:29:05.450Z,3.00
2023-02-19T13:32:23.721Z,4.78
2023-02-19T13:35:42.013Z,6.00
2023-02-19T13:38:48.118Z,3.25
2023-02-19T13:41:56.914Z,5.43
2023-02-19T13:45:03.537Z,4.47
2023-02-19T13:48:33.214Z,4.95
2023-02-19T13:51:39.507Z,3.70
2023-02-19T13:54:48.944Z,3.15
2023-02-19T13:57:53.760Z,2.40
2023-02-19T14:01:14.661Z,8.52
2023-02-19T14:04:43.721Z,2.20
2023-02-19T14:07:51.224Z,1.40
2023-02-19T14:11:02.655Z,5.28
2023-02-19T14:14:33.940Z,2.72
2023-02-19T14:17:39.084Z,1.67
2023-02-19T14:20:45.428Z,2.17
2023-02-19T14:23:58.450Z,1.90
2023-02-19T14:27:02.568Z,1.00
2023-02-19T14:30:11.895Z,2.40
2023-02-19T14:33:18.915Z,1.40
2023-02-19T14:36:49.137Z,2.75
2023-02-19T14:39:54.688Z,0.77
2023-02-19T14:43:01.125Z,1.13
2023-02-19T14:46:35.001Z,1.20
2023-02-19T14:49:48.215Z,1.80
2023-02-19T14:52:56.725Z,1.55
2023-02-19T14:56:00.339Z,0.97
2023-02-19T14:59:08.824Z,1.70
2023-02-19T15:02:17.893Z,7.15
2023-02-19T15:05:26.337Z,2.92
2023-02-19T15:08:35.133Z,2.10
2023-02-19T15:11:43.450Z,1.73
2023-02-19T15:14:48.850Z,1.60
2023-02-19T15:17:54.423Z,1.90
2023-02-19T15:21:03.120Z,1.38
2023-02-19T15:24:07.229Z,2.78
2023-02-19T15:27:18.519Z,2.90
2023-02-19T15:30:29.496Z,3.28
2023-02-19T15:33:32.728Z,2.72
2023-02-19T15:36:35.673Z,3.60
2023-02-19T15:39:44.077Z,1.77
2023-02-19T15:42:47.919Z,1.70
2023-02-19T15:45:54.524Z,2.25
2023-02-19T15:49:08.292Z,1.80
2023-02-19T15:52:19.189Z,1.67
2023-02-19T15:55:26.169Z,2.25
2023-02-19T15:58:45.738Z,1.90
2023-02-19T16:01:49.504Z,2.30
2023-02-19T16:04:52.646Z,3.83
2023-02-19T16:08:17.749Z,8.18
2023-02-19T16:11:23.599Z,2.50
2023-02-19T16:14:32.327Z,5.00
2023-02-19T16:17:35.476Z,3.22
2023-02-19T16:20:38.702Z,6.90
2023-02-19T16:23:43.936Z,5.65
2023-02-19T16:26:48.363Z,6.53
2023-02-19T16:29:52.374Z,6.67
2023-02-19T16:33:49.979Z,5.95
2023-02-19T16:36:53.131Z,8.73
2023-02-19T16:40:08.672Z,6.57
2023-02-19T16:43:15.257Z,8.18
2023-02-19T16:46:18.544Z,7.70
2023-02-19T16:49:25.151Z,8.85
2023-02-19T16:52:28.702Z,7.32
2023-02-19T16:55:34.888Z,11.13
2023-02-19T16:58:39.930Z,12.07
2023-02-19T17:01:43.572Z,14.97
2023-02-19T17:04:48.568Z,11.73
2023-02-19T17:07:52.185Z,7.28
2023-02-19T17:10:56.227Z,11.55
2023-02-19T17:13:59.690Z,21.27
2023-02-19T17:17:04.031Z,9.93
2023-02-19T17:20:16.373Z,18.10
2023-02-19T17:23:24.486Z,9.93
2023-02-19T17:26:32.611Z,12.45
2023-02-19T17:29:37.301Z,4.10
2023-02-19T17:32:40.662Z,5.40
2023-02-19T17:35:44.909Z,7.45
2023-02-19T17:38:50.621Z,6.20
2023-02-19T17:41:53.754Z,3.13
2023-02-19T17:45:00.165Z,3.97
2023-02-19T17:48:03.343Z,2.30
2023-02-19T17:51:06.790Z,1.73
2023-02-19T17:54:10.110Z,2.15
2023-02-19T17:57:13.246Z,1.90
2023-02-19T18:00:20.137Z,1.97
2023-02-19T18:03:27.326Z,2.67
2023-02-19T18:06:31.260Z,2.38
2023-02-19T18:09:35.137Z,1.77
2023-02-19T18:12:39.573Z,1.45
2023-02-19T18:15:42.783Z,2.87
2023-02-19T18:18:45.968Z,2.20
2023-02-19T18:21:49.435Z,2.08
2023-02-19T18:24:53.755Z,2.22
2023-02-19T18:27:58.786Z,2.15
2023-02-19T18:31:02.846Z,2.47
2023-02-19T18:34:06.281Z,2.60
2023-02-19T18:37:09.806Z,2.35
2023-02-19T18:40:16.829Z,2.30
2023-02-19T18:43:20.092Z,2.38
2023-02-19T18:46:24.894Z,1.87
2023-02-19T18:49:36.924Z,2.47
2023-02-19T18:52:40.023Z,2.03
2023-02-19T18:55:43.477Z,2.42
2023-02-19T18:58:48.225Z,2.25
2023-02-19T19:01:53.207Z,2.23
2023-02-19T19:04:57.239Z,2.17
2023-02-19T19:08:01.979Z,2.40
2023-02-19T19:11:09.130Z,2.40
2023-02-19T19:14:12.599Z,2.45
2023-02-19T19:17:16.963Z,2.40
2023-02-19T19:20:23.303Z,2.20
2023-02-19T19:23:29.551Z,2.70
2023-02-19T19:26:33.588Z,3.42
2023-02-19T19:29:36.886Z,3.28
2023-02-19T19:32:41.148Z,3.33
2023-02-19T19:35:44.413Z,3.37
2023-02-19T19:38:48.053Z,2.28
2023-02-19T19:41:56.791Z,3.20
2023-02-19T19:45:00.143Z,3.13
2023-02-19T19:48:03.313Z,4.40
2023-02-19T19:51:08.100Z,2.93
2023-02-19T19:54:12.164Z,3.03
2023-02-19T19:57:16.140Z,3.28
2023-02-19T20:00:23.532Z,4.55
2023-02-19T20:03:27.268Z,3.10
2023-02-19T20:06:32.024Z,3.77
2023-02-19T20:09:35.435Z,2.70
2023-02-19T20:12:41.033Z,4.13
2023-02-19T20:15:44.236Z,3.92
2023-02-19T20:18:50.722Z,2.57
2023-02-19T20:21:54.658Z,3.03
2023-02-19T20:24:58.145Z,3.10
2023-02-19T20:28:01.555Z,3.00
2023-02-19T20:31:05.133Z,3.17
2023-02-19T20:34:08.411Z,3.10
2023-02-19T20:37:11.656Z,3.13
2023-02-19T20:40:17.696Z,3.55
2023-02-19T20:43:20.878Z,2.95
2023-02-19T20:46:24.008Z,3.42
2023-02-19T20:49:30.272Z,3.30
2023-02-19T20:52:33.526Z,3.50
2023-02-19T20:55:39.159Z,3.28
2023-02-19T20:58:43.453Z,3.67
2023-02-19T21:01:47.147Z,3.88
2023-02-19T21:04:51.759Z,4.17
2023-02-19T21:07:54.984Z,3.47
2023-02-19T21:10:58.113Z,3.35
2023-02-19T21:14:01.674Z,3.63
2023-02-19T21:17:05.621Z,3.30
2023-02-19T21:20:09.492Z,2.80
2023-02-19T21:23:14.022Z,4.10
2023-02-19T21:26:17.220Z,3.33
2023-02-19T21:29:22.760Z,3.35
2023-02-19T21:32:26.946Z,4.40
2023-02-19T21:35:30.319Z,3.60
2023-02-19T21:38:34.489Z,3.60
2023-02-19T21:41:37.793Z,3.67
2023-02-19T21:44:42.992Z,3.53
2023-02-19T21:47:46.141Z,3.83
2023-02-19T21:50:49.318Z,3.60
2023-02-19T21:53:52.615Z,3.43
2023-02-19T21:56:56.990Z,3.45
2023-02-19T22:00:00.069Z,3.78
2023-02-19T22:03:04.240Z,4.13
2023-02-19T22:06:08.370Z,3.27
2023-02-19T22:09:13.429Z,4.17
2023-02-19T22:12:17.331Z,3.22
2023-02-19T22:15:20.386Z,3.58
2023-02-19T22:18:23.969Z,4.10
2023-02-19T22:21:32.499Z,3.13
2023-02-19T22:24:35.708Z,2.60
2023-02-19T22:27:38.636Z,3.30
2023-02-19T22:30:42.970Z,3.28
2023-02-19T22:33:46.284Z,3.50
2023-02-19T22:36:49.380Z,2.90
2023-02-19T22:39:52.357Z,3.20
2023-02-19T22:42:55.326Z,3.90
2023-02-19T22:46:00.695Z,4.93
2023-02-19T22:49:05.747Z,4.55
2023-02-19T22:52:10.108Z,3.40
2023-02-19T22:55:13.071Z,3.70
2023-02-19T22:58:15.983Z,3.33
2023-02-19T23:01:20.033Z,3.85
2023-02-19T23:04:25.284Z,3.22
2023-02-19T23:07:28.143Z,4.07
2023-02-19T23:10:31.203Z,3.53
2023-02-19T23:13:34.126Z,3.45
2023-02-19T23:16:39.491Z,3.45
2023-02-19T23:19:43.369Z,2.92
2023-02-19T23:22:46.414Z,2.87
2023-02-19T23:25:49.612Z,3.07
2023-02-19T23:28:52.695Z,2.95
2023-02-19T23:31:57.091Z,3.40
2023-02-19T23:35:00.128Z,3.10
2023-02-19T23:38:03.150Z,2.83
2023-02-19T23:41:10.952Z,3.20
2023-02-19T23:44:13.905Z,2.80
2023-02-19T23:47:16.915Z,2.47
2023-02-19T23:50:20.536Z,3.55
2023-02-19T23:53:23.795Z,3.10
2023-02-19T23:56:28.779Z,3.33
2023-02-19T23:59:31.850Z,2.60
